Time;durP1;ratioP1;P1;durP2;ratioP2;P2;SDS_P1;SDS_P2;PMS_P1;PMS_P2;Temp;Humidity;BMP_temperature;BMP_pressure;BME280_temperature;BME280_humidity;BME280_pressure;Samples;Min_cycle;Max_cycle;Signal;HPM_P1;HPM_P2
2022/11/26 00:01:00;;;;;;;7.00;4.93;;;;;;;5.66;77.84;95375.44;5036148;28;20493;-78
2022/11/26 00:03:26;;;;;;;5.93;4.27;;;;;;;5.57;79.19;95377.63;5036294;28;20447;-77
2022/11/26 00:05:56;;;;;;;7.87;5.40;;;;;;;5.60;78.97;95371.41;5036096;28;20470;-78
2022/11/26 00:08:28;;;;;;;10.97;4.80;;;;;;;5.59;78.26;95381.00;5032843;28;20454;-79
2022/11/26 00:10:56;;;;;;;5.07;4.30;;;;;;;5.55;77.74;95379.50;5000679;28;20446;-79
2022/11/26 00:13:26;;;;;;;5.80;4.40;;;;;;;5.60;77.80;95368.81;5035628;28;20432;-79
2022/11/26 00:15:53;;;;;;;4.20;3.80;;;;;;;5.56;77.49;95372.53;5035738;28;20434;-79
2022/11/26 00:18:22;;;;;;;4.47;3.90;;;;;;;5.57;78.39;95362.03;5000290;28;20483;-79
2022/11/26 00:20:53;;;;;;;6.90;4.23;;;;;;;5.62;77.82;95361.75;5035010;28;20443;-79
2022/11/26 00:23:22;;;;;;;6.20;4.30;;;;;;;5.51;78.08;95366.75;5035516;28;20431;-79
2022/11/26 00:25:54;;;;;;;8.67;5.20;;;;;;;5.45;78.22;95362.72;5035270;28;20885;-79
2022/11/26 00:28:26;;;;;;;11.33;6.30;;;;;;;5.44;78.46;95360.19;5034928;28;20427;-79
2022/11/26 00:30:54;;;;;;;7.70;5.10;;;;;;;5.37;79.50;95359.72;5033267;28;20466;-78
2022/11/26 00:33:22;;;;;;;14.93;7.17;;;;;;;5.35;80.10;95366.78;5032781;28;20454;-79
2022/11/26 00:35:50;;;;;;;14.67;7.80;;;;;;;5.35;80.21;95358.13;5035120;28;20490;-79
2022/11/26 00:38:20;;;;;;;7.70;5.10;;;;;;;5.34;80.31;95359.88;5034294;28;20561;-79
2022/11/26 00:40:47;;;;;;;8.10;5.20;;;;;;;5.34;80.44;95353.84;5032328;28;20455;-79
2022/11/26 00:43:17;;;;;;;5.10;4.60;;;;;;;5.32;80.26;95356.53;5034529;28;20506;-79
2022/11/26 00:45:44;;;;;;;7.37;5.20;;;;;;;5.26;80.28;95359.50;5034093;28;21415;-79
2022/11/26 00:48:10;;;;;;;5.77;5.00;;;;;;;5.20;80.13;95367.63;5035030;28;20450;-79
2022/11/26 00:50:40;;;;;;;12.90;5.10;;;;;;;5.22;79.71;95379.66;5034581;28;21044;-79
2022/11/26 00:53:07;;;;;;;4.77;4.20;;;;;;;5.26;79.34;95365.53;5034065;28;20454;-79
2022/11/26 00:55:36;;;;;;;5.83;4.63;;;;;;;5.29;80.08;95362.75;5034544;28;20437;-79
2022/11/26 00:58:05;;;;;;;8.97;5.43;;;;;;;5.26;79.45;95375.09;5034569;28;20505;-79
2022/11/26 01:00:35;;;;;;;5.30;4.07;;;;;;;5.25;79.15;95376.88;5034251;28;20435;-79
2022/11/26 01:03:02;;;;;;;8.60;4.83;;;;;;;5.27;79.25;95369.81;5034678;28;20451;-79
2022/11/26 01:05:32;;;;;;;6.97;4.63;;;;;;;5.23;79.72;95373.53;5034556;28;20444;-79
2022/11/26 01:08:01;;;;;;;11.43;4.17;;;;;;;5.24;79.13;95374.34;5033978;28;20450;-79
2022/11/26 01:10:31;;;;;;;6.37;4.40;;;;;;;5.21;78.98;95375.38;5034269;28;20465;-79
2022/11/26 01:12:58;;;;;;;5.43;4.37;;;;;;;5.26;79.26;95367.31;4999655;28;20539;-79
2022/11/26 01:15:26;;;;;;;4.57;4.17;;;;;;;5.19;79.39;95373.75;5033972;28;20799;-79
2022/11/26 01:17:55;;;;;;;6.20;5.10;;;;;;;5.17;79.31;95388.59;5034149;28;20482;-79
2022/11/26 01:20:25;;;;;;;5.63;4.63;;;;;;;5.08;79.21;95389.13;5033074;28;20987;-79
2022/11/26 01:22:54;;;;;;;6.10;4.50;;;;;;;5.07;79.27;95397.84;5033810;28;20439;-79
2022/11/26 01:25:22;;;;;;;6.50;4.40;;;;;;;5.02;79.17;95395.50;5033798;28;20454;-79
2022/11/26 01:27:49;;;;;;;6.40;4.63;;;;;;;4.96;80.61;95391.50;5033966;28;20454;-78
2022/11/26 01:30:20;;;;;;;7.43;6.60;;;;;;;4.97;80.57;95395.75;5034026;28;20944;-79
2022/11/26 01:32:47;;;;;;;14.50;8.10;;;;;;;5.04;79.77;95395.41;5033780;28;20528;-79
2022/11/26 01:35:16;;;;;;;10.70;7.00;;;;;;;5.07;78.88;95401.28;5034223;28;20803;-79
2022/11/26 01:37:43;;;;;;;8.83;5.90;;;;;;;5.08;80.08;95408.16;5033611;28;20450;-79
2022/11/26 01:41:01;;;;;;;9.07;5.93;;;;;;;5.11;79.94;95409.75;5033456;28;20493;-79
2022/11/26 01:43:31;;;;;;;8.63;4.97;;;;;;;5.12;79.82;95401.88;4953192;29;20482;-79
2022/11/26 01:45:57;;;;;;;6.63;4.60;;;;;;;5.10;79.06;95408.09;4953351;29;20457;-79
2022/11/26 01:48:28;;;;;;;8.87;5.63;;;;;;;5.12;79.01;95406.22;4953040;29;20447;-79
2022/11/26 01:51:00;;;;;;;7.80;5.70;;;;;;;5.11;79.46;95412.34;4953804;29;20441;-79
2022/11/26 01:53:33;;;;;;;7.80;6.03;;;;;;;4.98;79.71;95401.81;4953280;29;20443;-79
2022/11/26 01:56:03;;;;;;;6.00;4.40;;;;;;;5.00;79.01;95406.91;4953781;29;20450;-79
2022/11/26 01:58:34;;;;;;;5.80;5.30;;;;;;;4.93;79.25;95407.25;4953747;29;20504;-78
2022/11/26 02:01:01;;;;;;;5.50;4.77;;;;;;;4.94;78.99;95414.13;4953244;29;20457;-79
2022/11/26 02:03:31;;;;;;;5.70;5.10;;;;;;;4.91;78.85;95410.84;4952968;29;21066;-79
2022/11/26 02:06:04;;;;;;;4.67;4.10;;;;;;;4.77;80.10;95414.19;4952915;29;20449;-79
2022/11/26 02:08:33;;;;;;;6.20;5.20;;;;;;;4.71;80.39;95405.91;4952759;29;20944;-79
2022/11/26 02:11:15;;;;;;;7.53;4.40;;;;;;;4.68;80.51;95414.69;4952867;29;20849;-79
2022/11/26 02:13:43;;;;;;;4.43;4.00;;;;;;;4.69;80.66;95408.59;4956947;28;20441;-79
2022/11/26 02:16:18;;;;;;;6.13;5.20;;;;;;;4.68;81.04;95416.47;4972046;28;20511;-79
2022/11/26 02:18:52;;;;;;;5.17;4.60;;;;;;;4.53;80.48;95407.69;4972212;28;20901;-79
2022/11/26 02:21:26;;;;;;;6.20;4.47;;;;;;;4.51;81.87;95410.38;5032972;28;20458;-79
2022/11/26 02:24:17;;;;;;;5.90;5.27;;;;;;;4.50;82.07;95405.28;5032750;28;20478;-79
2022/11/26 02:27:16;;;;;;;5.90;5.30;;;;;;;4.50;82.95;95398.31;4971783;28;20449;-79
2022/11/26 02:30:06;;;;;;;9.93;5.30;;;;;;;4.45;82.37;95396.88;4971959;28;20449;-79
2022/11/26 02:32:56;;;;;;;6.33;4.43;;;;;;;4.45;82.87;95399.47;4975206;28;20445;-79
2022/11/26 02:35:30;;;;;;;4.87;4.40;;;;;;;4.49;82.19;95399.22;4956505;29;20466;-79
2022/11/26 02:38:01;;;;;;;5.47;4.97;;;;;;;4.50;82.80;95403.50;4956258;29;20450;-79
2022/11/26 02:40:28;;;;;;;5.30;4.80;;;;;;;4.49;81.66;95407.03;4956291;29;20485;-79
2022/11/26 02:42:55;;;;;;;5.97;4.70;;;;;;;4.47;81.81;95400.22;4956291;29;21183;-79
2022/11/26 02:45:26;;;;;;;4.67;4.27;;;;;;;4.50;81.56;95400.06;4956206;29;20945;-79
2022/11/26 02:47:56;;;;;;;13.20;7.37;;;;;;;4.49;81.45;95406.19;4956159;29;20965;-79
2022/11/26 02:50:27;;;;;;;30.50;12.43;;;;;;;4.51;81.20;95419.94;4956523;29;20510;-79
2022/11/26 02:52:58;;;;;;;16.63;7.43;;;;;;;4.55;80.77;95411.06;4956227;29;20442;-79
2022/11/26 02:55:28;;;;;;;9.07;6.17;;;;;;;4.57;81.04;95419.59;4956394;29;20517;-79
2022/11/26 02:57:55;;;;;;;10.57;6.90;;;;;;;4.59;80.83;95412.56;4956682;29;20504;-78
2022/11/26 03:00:24;;;;;;;12.20;7.47;;;;;;;4.57;80.32;95409.22;4924525;29;20482;-78
2022/11/26 03:02:56;;;;;;;10.60;7.30;;;;;;;4.52;80.64;95419.03;4957332;28;20908;-79
2022/11/26 03:05:23;;;;;;;10.07;6.53;;;;;;;4.51;81.39;95417.34;5014242;28;20811;-79
2022/11/26 03:07:54;;;;;;;12.50;5.70;;;;;;;4.49;80.96;95409.63;5014505;28;20447;-79
2022/11/26 03:10:25;;;;;;;7.80;5.10;;;;;;;4.54;81.11;95419.78;5014136;28;20428;-79
2022/11/26 03:12:52;;;;;;;4.67;4.27;;;;;;;4.52;80.40;95421.63;5027456;28;20453;-79
2022/11/26 03:15:19;;;;;;;5.27;4.60;;;;;;;4.52;81.36;95422.44;5036127;28;20932;-79
2022/11/26 03:17:47;;;;;;;8.00;4.87;;;;;;;4.52;80.35;95421.63;5036187;28;20461;-79
2022/11/26 03:20:15;;;;;;;8.37;5.07;;;;;;;4.52;80.49;95429.41;5001847;28;20524;-79
2022/11/26 03:22:42;;;;;;;9.27;4.90;;;;;;;4.43;80.31;95432.50;5036170;28;20793;-79
2022/11/26 03:25:09;;;;;;;5.10;4.03;;;;;;;4.43;80.92;95437.69;5036702;28;20451;-79
2022/11/26 03:27:36;;;;;;;6.50;4.30;;;;;;;4.41;80.81;95439.53;5036332;28;20443;-79
2022/11/26 03:30:04;;;;;;;4.70;4.40;;;;;;;4.37;81.03;95444.06;5036504;28;20443;-79
2022/11/26 03:32:30;;;;;;;7.20;4.53;;;;;;;4.37;81.25;95448.41;5036023;28;20568;-79
2022/11/26 03:34:58;;;;;;;6.50;3.80;;;;;;;4.35;81.29;95451.94;5035535;28;20450;-78
2022/11/26 03:37:25;;;;;;;5.90;4.20;;;;;;;4.37;81.74;95458.81;5035673;28;20446;-79
2022/11/26 03:39:52;;;;;;;4.40;4.00;;;;;;;4.32;81.73;95451.22;5035703;28;20490;-79
2022/11/26 03:42:19;;;;;;;6.30;4.23;;;;;;;4.23;81.40;95465.53;5035302;28;20450;-79
2022/11/26 03:44:46;;;;;;;9.13;4.47;;;;;;;4.17;82.06;95465.84;5035707;28;20447;-79
2022/11/26 03:47:12;;;;;;;4.63;4.30;;;;;;;4.14;82.38;95465.16;5036230;28;20497;-79
2022/11/26 03:49:39;;;;;;;8.10;4.70;;;;;;;4.10;82.26;95472.28;5037011;28;20447;-79
2022/11/26 03:52:07;;;;;;;12.23;4.90;;;;;;;4.09;81.64;95467.16;5036264;28;20427;-78
2022/11/26 03:54:34;;;;;;;5.40;4.90;;;;;;;4.05;81.88;95474.25;5035022;28;21166;-79
2022/11/26 03:57:01;;;;;;;8.00;4.90;;;;;;;4.03;82.47;95476.06;5035847;28;20484;-79
2022/11/26 03:59:28;;;;;;;6.97;4.73;;;;;;;4.03;82.34;95479.50;5035850;28;20498;-78
2022/11/26 04:01:55;;;;;;;11.60;6.00;;;;;;;4.04;81.83;95477.75;5036221;28;20458;-79
2022/11/26 04:04:21;;;;;;;8.83;5.27;;;;;;;4.03;82.16;95476.06;5035581;28;20442;-80
2022/11/26 04:06:48;;;;;;;5.50;4.27;;;;;;;4.14;85.22;95488.53;5035487;28;20489;-78
2022/11/26 04:09:16;;;;;;;5.90;5.30;;;;;;;4.21;84.03;95480.34;5035517;28;20473;-84
2022/11/26 04:11:43;;;;;;;6.73;4.43;;;;;;;4.22;82.75;95483.78;5035645;28;20442;-80
2022/11/26 04:14:10;;;;;;;7.73;4.80;;;;;;;4.26;82.27;95495.69;5035239;28;20430;-79
2022/11/26 04:16:37;;;;;;;7.67;4.50;;;;;;;4.25;81.88;95500.06;5035279;28;20435;-79
2022/11/26 04:19:03;;;;;;;6.43;4.50;;;;;;;4.24;81.78;95503.56;5035326;28;20474;-80
2022/11/26 04:21:30;;;;;;;6.17;4.97;;;;;;;4.19;81.35;95507.31;5034967;28;20450;-79
2022/11/26 04:23:57;;;;;;;8.40;5.63;;;;;;;4.18;81.96;95505.66;5035208;28;20929;-80
2022/11/26 04:26:25;;;;;;;6.97;5.00;;;;;;;4.21;82.00;95513.28;5016872;28;21004;-79
2022/11/26 04:28:52;;;;;;;6.40;5.27;;;;;;;4.13;82.56;95523.22;5035532;28;20451;-79
2022/11/26 04:31:19;;;;;;;6.60;4.97;;;;;;;4.07;82.57;95521.78;5035014;28;20513;-79
2022/11/26 04:33:45;;;;;;;5.80;5.30;;;;;;;4.07;83.06;95523.53;5035544;28;20933;-79
2022/11/26 04:36:12;;;;;;;8.20;6.30;;;;;;;4.09;82.97;95524.28;5035098;28;20438;-81
2022/11/26 04:38:39;;;;;;;8.00;5.80;;;;;;;4.15;83.89;95516.19;5035324;28;20435;-80
2022/11/26 04:41:06;;;;;;;8.03;6.00;;;;;;;4.18;84.07;95527.25;5035041;28;20486;-80
2022/11/26 04:43:34;;;;;;;5.53;4.77;;;;;;;4.19;83.84;95533.28;5035190;28;20496;-80
2022/11/26 04:46:01;;;;;;;9.73;6.10;;;;;;;4.18;83.77;95537.66;5034722;28;20450;-80
2022/11/26 04:48:28;;;;;;;6.40;5.80;;;;;;;4.20;84.14;95535.81;5034610;28;20996;-80
2022/11/26 04:50:55;;;;;;;7.53;6.03;;;;;;;4.21;84.16;95545.28;5034916;28;20970;-80
2022/11/26 04:53:22;;;;;;;8.43;5.83;;;;;;;4.23;83.65;95540.84;5034586;28;20516;-79
2022/11/26 04:55:49;;;;;;;8.93;6.30;;;;;;;4.23;83.18;95550.41;5034545;28;20450;-79
2022/11/26 04:58:17;;;;;;;7.57;5.80;;;;;;;4.24;84.03;95545.13;5033950;28;20482;-80
2022/11/26 05:00:45;;;;;;;6.47;5.87;;;;;;;4.23;83.72;95550.41;5034691;28;20490;-80
2022/11/26 05:03:12;;;;;;;7.90;5.60;;;;;;;4.29;83.78;95558.72;5034424;28;20506;-80
2022/11/26 05:05:40;;;;;;;6.80;6.10;;;;;;;4.30;83.21;95554.38;5034273;28;20438;-79
2022/11/26 05:11:29;;;;;;;10.20;7.17;;;;;;;4.22;82.51;95557.34;5032792;28;20469;-80
2022/11/26 05:13:55;;;;;;;12.83;6.90;;;;;;;4.18;82.26;95561.03;5034217;28;20439;-80
2022/11/26 05:16:23;;;;;;;10.30;6.83;;;;;;;4.21;82.45;95560.88;5035123;28;20450;-80
2022/11/26 05:18:50;;;;;;;7.23;5.50;;;;;;;4.27;82.60;95563.16;5034515;28;20434;-81
2022/11/26 05:21:32;;;;;;;5.67;5.03;;;;;;;4.35;82.55;95566.25;5034179;28;20952;-80
2022/11/26 05:23:59;;;;;;;8.43;6.07;;;;;;;4.34;81.38;95571.50;5035248;28;20481;-80
2022/11/26 05:26:26;;;;;;;6.00;5.40;;;;;;;4.34;82.57;95571.50;5034712;28;20445;-80
2022/11/26 05:28:53;;;;;;;13.57;6.80;;;;;;;4.38;82.54;95570.44;4999345;28;20534;-80
2022/11/26 05:31:19;;;;;;;9.20;5.00;;;;;;;4.30;83.04;95575.16;5033968;28;20957;-80
2022/11/26 05:33:48;;;;;;;11.23;6.83;;;;;;;4.33;83.65;95573.25;5034154;28;20450;-79
2022/11/26 05:36:14;;;;;;;6.67;5.70;;;;;;;4.33;82.07;95575.84;5033934;28;20445;-79
2022/11/26 05:38:41;;;;;;;7.80;6.23;;;;;;;4.30;81.67;95582.94;5033469;28;20856;-79
2022/11/26 05:41:08;;;;;;;9.33;6.73;;;;;;;8.85;100.00;95562.53;5033611;28;20480;-78
2022/11/26 05:43:35;;;;;;;16.13;6.57;;;;;;;7.64;100.00;95572.94;5033925;28;20440;-82
2022/11/26 05:46:05;;;;;;;13.10;6.97;;;;;;;6.53;100.00;95584.88;5033568;28;20427;-81
2022/11/26 05:48:32;;;;;;;9.40;6.50;;;;;;;5.62;100.00;95579.59;5015408;28;20508;-81
2022/11/26 05:51:01;;;;;;;14.43;7.77;;;;;;;5.13;100.00;95579.59;4999440;28;20464;-83
2022/11/26 05:53:29;;;;;;;11.57;7.10;;;;;;;4.91;100.00;95591.09;5033692;28;20443;-82
2022/11/26 05:55:56;;;;;;;7.90;6.40;;;;;;;4.81;95.87;95597.69;5033813;28;20442;-80
2022/11/26 06:01:51;;;;;;;9.60;7.17;;;;;;;4.63;88.85;95607.28;5024160;28;20512;-83
2022/11/26 06:04:18;;;;;;;12.60;6.60;;;;;;;4.53;88.06;95610.41;5033870;28;20473;-83
2022/11/26 06:06:46;;;;;;;13.10;7.43;;;;;;;4.55;86.34;95608.56;5039781;28;20454;-84
2022/11/26 06:09:13;;;;;;;10.60;6.57;;;;;;;4.54;87.26;95612.91;5040187;28;20453;-84
2022/11/26 06:11:40;;;;;;;8.67;6.57;;;;;;;4.56;87.12;95612.84;5039670;28;20781;-83
2022/11/26 06:14:09;;;;;;;11.63;7.17;;;;;;;4.56;87.05;95605.88;5039621;28;20521;-85
2022/11/26 06:16:36;;;;;;;10.47;6.73;;;;;;;4.58;88.23;95611.84;5040156;28;20458;-85
2022/11/26 06:19:05;;;;;;;11.47;7.43;;;;;;;4.59;87.05;95617.88;5039720;28;20516;-85
2022/11/26 06:21:33;;;;;;;14.23;7.50;;;;;;;4.58;86.33;95617.03;5039744;28;20540;-84
2022/11/26 06:24:01;;;;;;;13.57;8.83;;;;;;;4.55;86.68;95613.75;5039473;28;20968;-84
2022/11/26 06:26:28;;;;;;;13.67;9.13;;;;;;;4.50;86.63;95615.75;5039630;28;20446;-84
2022/11/26 06:28:56;;;;;;;17.00;9.70;;;;;;;4.48;87.27;95612.38;5040521;28;20435;-84
2022/11/26 06:31:22;;;;;;;12.07;8.13;;;;;;;4.48;87.71;95617.59;4972937;28;20439;-84
2022/11/26 06:36:34;;;;;;;13.97;7.23;;;;;;;4.63;92.14;95607.28;4998236;28;20440;-82
2022/11/26 06:39:02;;;;;;;7.53;6.57;;;;;;;4.71;90.47;95612.09;4997884;28;20456;-83
2022/11/26 06:41:29;;;;;;;7.80;7.10;;;;;;;4.78;89.74;95620.41;4997992;28;21072;-82
2022/11/26 06:43:56;;;;;;;14.53;7.63;;;;;;;4.81;88.14;95626.31;4997991;28;20877;-83
2022/11/26 06:46:22;;;;;;;25.43;14.00;;;;;;;4.80;87.79;95627.22;4997934;28;20463;-83
2022/11/26 06:48:49;;;;;;;26.00;11.90;;;;;;;4.86;87.32;95628.66;4997745;28;20432;-83
2022/11/26 06:51:19;;;;;;;12.27;9.30;;;;;;;4.91;86.53;95617.09;4993222;28;20902;-82
2022/11/26 06:53:46;;;;;;;13.60;8.93;;;;;;;4.95;86.36;95623.03;4989248;28;20438;-82
2022/11/26 06:56:17;;;;;;;13.90;9.00;;;;;;;5.00;86.09;95614.97;4989247;28;20619;-82
2022/11/26 06:58:45;;;;;;;15.13;8.67;;;;;;;5.02;87.01;95615.72;4979848;28;20503;-82
2022/11/26 07:01:14;;;;;;;13.73;8.60;;;;;;;5.06;86.18;95622.47;4996083;28;20990;-82
2022/11/26 07:03:41;;;;;;;12.10;8.20;;;;;;;5.15;86.75;95624.56;4996503;28;20451;-83
2022/11/26 07:06:16;;;;;;;13.90;7.70;;;;;;;5.19;85.86;95621.72;4995974;28;20966;-81
2022/11/26 07:08:43;;;;;;;75.83;32.00;;;;;;;5.23;84.94;95635.44;5037906;28;20458;-81
2022/11/26 07:11:10;;;;;;;40.27;19.80;;;;;;;5.23;85.65;95632.84;5037781;28;20450;-83
2022/11/26 07:13:39;;;;;;;25.40;12.33;;;;;;;5.27;85.66;95624.78;5046169;28;20466;-83
2022/11/26 07:16:06;;;;;;;36.70;21.30;;;;;;;5.27;85.49;95634.34;5037077;28;20553;-83
2022/11/26 07:18:34;;;;;;;48.40;32.30;;;;;;;5.20;84.58;95627.78;5034150;28;20809;-83
2022/11/26 07:21:05;;;;;;;80.63;49.87;;;;;;;5.19;86.00;95626.09;5036477;28;20485;-82
2022/11/26 07:23:31;;;;;;;32.93;21.80;;;;;;;5.20;85.55;95630.38;5016210;28;20454;-83
2022/11/26 07:25:59;;;;;;;27.07;20.07;;;;;;;5.20;85.82;95638.19;5034647;28;21140;-83
2022/11/26 07:28:26;;;;;;;30.00;20.00;;;;;;;5.20;85.73;95633.84;5043534;28;20447;-82
2022/11/26 07:30:54;;;;;;;41.83;26.73;;;;;;;5.22;87.59;95625.97;5034680;28;20451;-82
2022/11/26 07:33:22;;;;;;;48.20;33.77;;;;;;;5.36;88.03;95631.28;5036918;28;20454;-82
2022/11/26 07:35:53;;;;;;;36.73;24.80;;;;;;;5.53;87.35;95636.44;5053549;28;20941;-82
2022/11/26 07:38:20;;;;;;;33.73;16.90;;;;;;;5.69;87.02;95635.59;5036463;28;20438;-83
2022/11/26 07:40:47;;;;;;;23.90;15.83;;;;;;;5.80;86.28;95633.28;5034183;28;20479;-83
2022/11/26 07:43:14;;;;;;;27.77;16.33;;;;;;;5.89;86.19;95640.59;5034582;28;20815;-83
2022/11/26 07:45:41;;;;;;;17.60;13.50;;;;;;;5.90;85.24;95643.13;4999620;28;20447;-83
2022/11/26 07:48:09;;;;;;;25.07;18.10;;;;;;;5.95;86.31;95648.09;5034538;28;20941;-83
2022/11/26 07:50:36;;;;;;;16.77;13.00;;;;;;;5.96;85.88;95646.31;4999905;28;20438;-83
2022/11/26 07:53:02;;;;;;;16.33;11.20;;;;;;;5.89;87.14;95645.78;5034169;28;20497;-83
2022/11/26 07:55:29;;;;;;;12.00;10.70;;;;;;;5.98;86.61;95645.31;5034391;28;20454;-83
2022/11/26 07:57:56;;;;;;;14.87;10.50;;;;;;;6.05;87.30;95653.63;5020133;28;20470;-82
2022/11/26 08:00:23;;;;;;;22.97;11.90;;;;;;;6.11;87.01;95654.16;4999129;28;20532;-81
2022/11/26 08:02:50;;;;;;;17.43;12.07;;;;;;;6.19;86.96;95658.94;5034051;28;20461;-81
2022/11/26 08:05:18;;;;;;;14.97;11.33;;;;;;;6.27;86.89;95666.31;5034163;28;20448;-81
2022/11/26 08:07:44;;;;;;;15.90;10.87;;;;;;;6.32;86.34;95665.13;5033924;28;20865;-81
2022/11/26 08:10:12;;;;;;;18.87;11.70;;;;;;;6.26;86.14;95662.88;5050664;28;20457;-81
2022/11/26 08:12:39;;;;;;;22.40;16.03;;;;;;;6.28;86.79;95658.41;5049142;28;20520;-81
2022/11/26 08:15:07;;;;;;;13.73;12.30;;;;;;;6.35;86.49;95656.31;5046200;28;20538;-82
2022/11/26 08:17:34;;;;;;;18.37;13.57;;;;;;;6.28;86.64;95654.97;5034133;28;20458;-82
2022/11/26 08:20:01;;;;;;;16.03;13.53;;;;;;;6.27;87.27;95642.88;4998956;28;20455;-82
2022/11/26 08:22:30;;;;;;;21.40;12.97;;;;;;;6.30;87.41;95647.91;5033844;28;20459;-82
2022/11/26 08:24:57;;;;;;;18.33;14.53;;;;;;;6.39;88.45;95643.03;5033937;28;20447;-81
2022/11/26 08:27:24;;;;;;;15.77;11.50;;;;;;;6.46;87.43;95653.94;5034056;28;20451;-82
2022/11/26 08:29:50;;;;;;;13.27;10.90;;;;;;;6.46;86.00;95664.38;4997951;28;20446;-81
2022/11/26 08:32:17;;;;;;;19.53;12.70;;;;;;;6.49;85.91;95659.00;5034342;28;20452;-81
2022/11/26 08:34:44;;;;;;;17.00;11.17;;;;;;;6.53;85.50;95668.31;5034664;28;20443;-82
2022/11/26 08:37:11;;;;;;;21.57;13.70;;;;;;;6.62;85.68;95659.97;5033734;28;20442;-82
2022/11/26 08:39:39;;;;;;;17.30;13.80;;;;;;;6.67;85.00;95649.28;5033723;28;20456;-82
2022/11/26 08:42:06;;;;;;;19.63;13.00;;;;;;;6.78;84.35;95660.78;5033589;28;20483;-82
2022/11/26 08:44:33;;;;;;;18.53;13.77;;;;;;;6.80;84.96;95665.91;5033687;28;20467;-81
2022/11/26 08:47:00;;;;;;;22.73;14.20;;;;;;;6.85;85.23;95671.69;5033972;28;20933;-82
2022/11/26 08:49:26;;;;;;;17.70;12.17;;;;;;;6.80;84.45;95665.91;5034773;28;20431;-81
2022/11/26 08:51:55;;;;;;;18.30;13.00;;;;;;;6.78;84.79;95666.00;5034793;28;20450;-80
2022/11/26 08:54:22;;;;;;;18.63;13.47;;;;;;;6.83;84.93;95669.19;5035491;28;20503;-79
2022/11/26 08:56:50;;;;;;;23.23;12.77;;;;;;;6.93;84.79;95668.63;5035585;28;20459;-83
2022/11/26 08:59:19;;;;;;;24.17;14.80;;;;;;;6.78;85.12;95665.16;5034692;28;20432;-81
2022/11/26 09:01:46;;;;;;;18.50;13.00;;;;;;;6.69;84.72;95670.91;5034554;28;20499;-80
2022/11/26 09:04:13;;;;;;;24.90;15.80;;;;;;;6.76;85.63;95675.69;5034677;28;20828;-80
2022/11/26 09:06:40;;;;;;;20.40;15.17;;;;;;;6.60;85.78;95672.25;4999631;28;20437;-78
2022/11/26 09:09:16;;;;;;;21.37;14.83;;;;;;;6.57;86.55;95675.03;5034540;28;20486;-78
2022/11/26 09:11:46;;;;;;;22.30;15.10;;;;;;;6.55;86.34;95670.84;5034695;28;20484;-78
2022/11/26 09:14:16;;;;;;;15.77;13.10;;;;;;;6.67;85.81;95665.78;5034408;28;20452;-77
2022/11/26 09:16:43;;;;;;;25.57;15.60;;;;;;;6.85;85.79;95671.69;4999561;28;20490;-77
2022/11/26 09:19:12;;;;;;;19.90;15.43;;;;;;;6.93;84.81;95679.06;5034196;28;20457;-78
2022/11/26 09:21:39;;;;;;;19.50;16.07;;;;;;;6.95;84.29;95672.84;5034744;28;20487;-77
2022/11/26 09:24:06;;;;;;;18.83;14.93;;;;;;;6.82;85.14;95664.88;5034219;28;20506;-78
2022/11/26 09:26:33;;;;;;;18.27;13.00;;;;;;;6.89;84.58;95669.75;4999449;28;20451;-78
2022/11/26 09:29:00;;;;;;;19.90;14.60;;;;;;;6.83;84.92;95670.94;5033731;28;20456;-78
2022/11/26 09:31:29;;;;;;;19.30;14.40;;;;;;;6.85;84.94;95663.88;5034020;28;20813;-78
2022/11/26 09:33:57;;;;;;;20.50;13.53;;;;;;;6.90;83.93;95658.38;5033770;28;20433;-78
2022/11/26 09:36:24;;;;;;;21.07;15.47;;;;;;;7.07;84.79;95666.06;5033691;28;20922;-77
2022/11/26 09:38:54;;;;;;;24.23;16.20;;;;;;;7.22;84.41;95666.94;5033574;28;20447;-78
2022/11/26 09:41:36;;;;;;;21.10;14.77;;;;;;;7.28;82.94;95651.75;5033282;28;20490;-77
2022/11/26 09:44:22;;;;;;;22.00;15.70;;;;;;;7.46;82.06;95655.03;5033855;28;20448;-78
2022/11/26 09:47:02;;;;;;;18.03;15.63;;;;;;;7.49;81.65;95641.78;4999026;28;20527;-78
2022/11/26 09:49:34;;;;;;;22.17;15.53;;;;;;;7.56;81.86;95652.72;5033678;28;20429;-78
2022/11/26 09:52:08;;;;;;;27.93;16.37;;;;;;;7.53;80.90;95652.91;5015871;28;20459;-78
2022/11/26 09:54:38;;;;;;;26.47;16.20;;;;;;;7.50;81.28;95647.84;5033913;28;20510;-77
2022/11/26 09:57:18;;;;;;;21.80;17.50;;;;;;;7.57;81.18;95643.94;5033660;28;20499;-77
2022/11/26 09:59:48;;;;;;;23.03;16.97;;;;;;;7.57;81.29;95641.34;5034158;28;20446;-78
2022/11/26 10:02:16;;;;;;;27.50;18.00;;;;;;;7.64;80.75;95634.81;5033743;28;20500;-77
2022/11/26 10:04:43;;;;;;;21.67;15.93;;;;;;;7.69;79.93;95632.75;5015286;28;20457;-77
2022/11/26 10:07:29;;;;;;;25.90;16.60;;;;;;;7.70;79.80;95626.56;5033606;28;20442;-79
2022/11/26 10:10:04;;;;;;;24.07;17.40;;;;;;;7.73;79.54;95623.78;5034260;28;20537;-79
2022/11/26 10:12:43;;;;;;;25.83;16.73;;;;;;;7.74;80.15;95620.22;5015283;28;20449;-78
2022/11/26 10:18:42;;;;;;;21.80;15.67;;;;;;;7.87;78.46;95615.94;5032087;28;20436;-81
2022/11/26 10:21:22;;;;;;;20.57;13.73;;;;;;;7.75;77.64;95617.50;5032947;28;20999;-80
2022/11/26 10:23:56;;;;;;;22.87;16.60;;;;;;;7.66;78.07;95612.03;5033694;28;20439;-78
2022/11/26 10:26:28;;;;;;;22.63;16.10;;;;;;;7.63;78.73;95605.22;5033243;28;20461;-78
2022/11/26 10:29:05;;;;;;;24.83;15.97;;;;;;;7.59;79.34;95613.34;5013541;28;20460;-78
2022/11/26 10:31:33;;;;;;;28.80;18.27;;;;;;;7.67;79.61;95598.88;5013151;28;20453;-77
2022/11/26 10:34:09;;;;;;;30.33;17.70;;;;;;;7.84;79.58;95603.06;5013395;28;20451;-77
2022/11/26 10:36:39;;;;;;;29.57;18.20;;;;;;;8.06;78.92;95608.59;5013349;28;20458;-77
2022/11/26 10:39:12;;;;;;;27.00;18.27;;;;;;;8.01;78.70;95602.81;5013471;28;20438;-77
2022/11/26 10:41:39;;;;;;;31.60;17.90;;;;;;;8.06;78.06;95605.97;5012878;28;20497;-78
2022/11/26 10:44:29;;;;;;;31.30;19.00;;;;;;;7.85;78.75;95601.28;5012644;28;20451;-77
2022/11/26 10:46:56;;;;;;;28.80;19.67;;;;;;;7.75;79.69;95594.00;5013477;28;20466;-79
2022/11/26 10:49:26;;;;;;;29.87;18.50;;;;;;;7.87;79.71;95597.66;5013287;28;20447;-79
2022/11/26 10:51:57;;;;;;;35.83;16.90;;;;;;;7.75;79.26;95603.63;5013579;28;20529;-80
2022/11/26 10:54:28;;;;;;;27.07;19.40;;;;;;;7.56;80.50;95593.50;5032540;28;20458;-79
2022/11/26 10:56:56;;;;;;;25.83;17.47;;;;;;;7.57;80.92;95595.16;5016272;28;20470;-77
2022/11/26 10:59:28;;;;;;;33.23;20.37;;;;;;;7.58;80.00;95596.00;5025611;28;20797;-78
2022/11/26 11:02:01;;;;;;;28.73;22.23;;;;;;;7.80;80.39;95598.94;5035251;28;20504;-79
2022/11/26 11:04:32;;;;;;;27.37;18.63;;;;;;;7.88;78.13;95601.09;5036454;28;20453;-79
2022/11/26 11:06:59;;;;;;;25.50;18.07;;;;;;;7.95;77.94;95603.22;5023470;28;20454;-78
2022/11/26 11:09:32;;;;;;;29.27;19.90;;;;;;;8.03;77.95;95600.13;5022750;28;20484;-79
2022/11/26 11:12:22;;;;;;;37.60;23.10;;;;;;;8.02;78.78;95612.34;5036767;28;20920;-79
2022/11/26 11:14:50;;;;;;;33.53;20.17;;;;;;;8.17;79.04;95602.69;5036052;28;20452;-80
2022/11/26 11:17:32;;;;;;;31.30;21.97;;;;;;;8.30;78.60;95611.44;5035998;28;20453;-79
2022/11/26 11:20:30;;;;;;;29.07;19.10;;;;;;;8.13;77.61;95609.06;5036340;28;20462;-80
2022/11/26 11:23:07;;;;;;;33.40;19.50;;;;;;;8.19;77.94;95602.59;5035995;28;20489;-80
2022/11/26 11:25:36;;;;;;;27.37;18.87;;;;;;;8.33;77.57;95595.56;5018053;28;20454;-80
2022/11/26 11:28:07;;;;;;;30.87;20.27;;;;;;;8.43;76.88;95595.00;5015335;28;20451;-81
2022/11/26 11:30:36;;;;;;;28.03;20.80;;;;;;;8.49;76.55;95607.66;5015774;28;20443;-81
2022/11/26 11:33:12;;;;;;;32.30;20.30;;;;;;;8.01;76.66;95605.44;5017233;28;20953;-80
2022/11/26 11:35:41;;;;;;;29.07;20.20;;;;;;;8.18;77.42;95601.75;5021257;28;20521;-80
2022/11/26 11:38:22;;;;;;;36.30;20.30;;;;;;;8.32;77.54;95600.88;5016928;28;20455;-80
2022/11/26 11:40:49;;;;;;;42.67;21.83;;;;;;;8.22;77.69;95597.19;5016180;28;20925;-79
2022/11/26 11:43:18;;;;;;;28.57;19.43;;;;;;;8.30;77.88;95597.50;5016443;28;20446;-79
2022/11/26 11:45:55;;;;;;;34.10;21.70;;;;;;;8.12;78.21;95588.25;5016081;28;20478;-79
2022/11/26 11:48:36;;;;;;;32.87;20.57;;;;;;;8.21;77.65;95585.03;5015824;28;20846;-79
2022/11/26 11:51:18;;;;;;;28.80;19.57;;;;;;;8.40;77.95;95592.59;4980683;28;20450;-80
2022/11/26 11:53:59;;;;;;;32.17;20.70;;;;;;;8.38;77.96;95584.81;5016248;28;20964;-80
2022/11/26 11:56:32;;;;;;;28.37;18.87;;;;;;;8.34;77.28;95583.34;5015200;28;20449;-79
2022/11/26 11:59:21;;;;;;;31.50;20.97;;;;;;;8.52;77.59;95582.13;5015502;28;20461;-80